createdAt,value
2023-05-16T00:01:05.616Z,101389.03
2023-05-16T00:03:32.590Z,101389.66
2023-05-16T00:05:59.560Z,101390.88
2023-05-16T00:08:26.698Z,101395.59
2023-05-16T00:10:53.629Z,101394.78
2023-05-16T00:13:24.946Z,101392.34
2023-05-16T00:15:52.061Z,101393.16
2023-05-16T00:18:22.033Z,101399.91
2023-05-16T00:20:49.166Z,101406.06
2023-05-16T00:23:17.006Z,101396.84
2023-05-16T00:25:44.423Z,101389.91
2023-05-16T00:28:11.317Z,101398.91
2023-05-16T00:30:38.214Z,101393.56
2023-05-16T00:33:05.363Z,101395.63
2023-05-16T00:35:33.667Z,101392.34
2023-05-16T00:38:01.166Z,101395.41
2023-05-16T00:40:28.309Z,101393.16
2023-05-16T00:42:55.653Z,101387.81
2023-05-16T00:45:22.820Z,101390.28
2023-05-16T00:47:50.932Z,101385.78
2023-05-16T00:50:19.013Z,101395.38
2023-05-16T00:52:48.302Z,101398.84
2023-05-16T00:55:15.432Z,101396.81
2023-05-16T00:57:42.562Z,101395.81
2023-05-16T01:00:10.682Z,101390.72
2023-05-16T01:02:38.421Z,101396.03
2023-05-16T01:05:07.222Z,101398.69
2023-05-16T01:07:35.323Z,101397.88
2023-05-16T01:10:05.784Z,101396.03
2023-05-16T01:12:41.748Z,101398.88
2023-05-16T01:15:13.150Z,101399.72
2023-05-16T01:17:55.083Z,101409.13
2023-05-16T01:20:37.342Z,101416.06
2023-05-16T01:23:39.957Z,101427.53
2023-05-16T01:26:17.389Z,101412.56
2023-05-16T01:28:46.797Z,101416.03
2023-05-16T01:31:13.954Z,101414.41
2023-05-16T01:33:41.137Z,101412.78
2023-05-16T01:36:21.772Z,101411.94
2023-05-16T01:39:03.336Z,101423.81
2023-05-16T01:41:47.424Z,101419.78
2023-05-16T01:44:23.617Z,101426.34
2023-05-16T01:46:59.600Z,101421.41
2023-05-16T01:49:34.133Z,101415.69
2023-05-16T01:52:07.799Z,101425.09
2023-05-16T01:54:42.883Z,101432.44
2023-05-16T01:57:13.418Z,101426.28
2023-05-16T01:59:42.922Z,101429.97
2023-05-16T02:02:09.941Z,101429.13
2023-05-16T02:04:36.835Z,101429.56
2023-05-16T02:07:04.052Z,101435.28
2023-05-16T02:09:31.219Z,101440.81
2023-05-16T02:11:58.098Z,101434.84
2023-05-16T02:14:26.478Z,101425.44
2023-05-16T02:16:53.455Z,101436.91
2023-05-16T02:19:20.710Z,101440.59
2023-05-16T02:21:47.746Z,101438.13
2023-05-16T02:24:14.607Z,101434.03
2023-05-16T02:26:41.563Z,101445.50
2023-05-16T02:29:09.469Z,101442.22
2023-05-16T02:31:37.802Z,101441.78
2023-05-16T02:34:04.670Z,101440.56
2023-05-16T02:36:31.946Z,101448.13
2023-05-16T02:38:58.904Z,101448.09
2023-05-16T02:41:25.865Z,101454.00
2023-05-16T02:43:52.759Z,101446.03
2023-05-16T02:46:28.403Z,101459.53
2023-05-16T02:48:57.298Z,101461.81
2023-05-16T02:51:27.988Z,101463.84
2023-05-16T02:54:02.033Z,101471.84
2023-05-16T02:56:28.968Z,101474.88
2023-05-16T02:58:56.243Z,101479.75
2023-05-16T03:01:23.206Z,101475.25
2023-05-16T03:03:50.512Z,101488.31
2023-05-16T03:06:18.938Z,101486.00
2023-05-16T03:08:45.922Z,101481.66
2023-05-16T03:11:12.864Z,101477.53
2023-05-16T03:13:39.747Z,101484.03
2023-05-16T03:16:07.040Z,101473.94
2023-05-16T03:18:34.048Z,101482.31
2023-05-16T03:21:01.903Z,101480.22
2023-05-16T03:23:30.492Z,101492.28
2023-05-16T03:25:57.474Z,101491.63
2023-05-16T03:28:24.648Z,101502.66
2023-05-16T03:30:51.552Z,101504.69
2023-05-16T03:33:19.089Z,101506.69
2023-05-16T03:35:46.799Z,101498.50
2023-05-16T03:38:13.831Z,101512.53
2023-05-16T03:40:42.095Z,101507.81
2023-05-16T03:43:09.019Z,101510.84
2023-05-16T03:45:35.918Z,101512.66
2023-05-16T03:48:03.158Z,101523.28
2023-05-16T03:50:30.212Z,101523.28
2023-05-16T03:52:57.064Z,101516.78
2023-05-16T03:55:23.958Z,101522.53
2023-05-16T03:57:53.039Z,101513.16
2023-05-16T04:00:20.005Z,101523.41
2023-05-16T04:02:47.030Z,101531.25
2023-05-16T04:05:14.440Z,101518.59
2023-05-16T04:07:41.730Z,101530.47
2023-05-16T04:10:10.658Z,101532.75
2023-05-16T04:12:37.750Z,101531.72
2023-05-16T04:15:07.611Z,101544.22
2023-05-16T04:17:34.792Z,101544.00
2023-05-16T04:20:01.867Z,101548.50
2023-05-16T04:22:29.135Z,101542.34
2023-05-16T04:24:56.053Z,101551.34
2023-05-16T04:27:23.427Z,101542.09
2023-05-16T04:29:50.551Z,101550.47
2023-05-16T04:32:19.729Z,101561.50
2023-05-16T04:34:48.340Z,101556.94
2023-05-16T04:37:15.269Z,101552.38
2023-05-16T04:39:42.635Z,101562.38
2023-05-16T04:42:09.531Z,101554.78
2023-05-16T04:44:36.422Z,101562.50
2023-05-16T04:47:03.467Z,101559.59
2023-05-16T04:49:31.638Z,101556.72
2023-05-16T04:51:59.116Z,101561.56
2023-05-16T04:54:26.412Z,101564.78
2023-05-16T04:56:53.384Z,101573.13
2023-05-16T04:59:21.108Z,101570.03
2023-05-16T05:01:48.042Z,101585.50
2023-05-16T05:04:15.037Z,101581.59
2023-05-16T05:06:43.559Z,101588.28
2023-05-16T05:09:10.965Z,101583.34
2023-05-16T05:11:37.942Z,101579.66
2023-05-16T05:14:04.991Z,101591.94
2023-05-16T05:16:32.007Z,101588.28
2023-05-16T05:18:58.980Z,101595.22
2023-05-16T05:21:26.021Z,101594.22
2023-05-16T05:23:54.219Z,101598.50
2023-05-16T05:26:22.066Z,101597.16
2023-05-16T05:29:01.115Z,101603.09
2023-05-16T05:31:33.628Z,101602.06
2023-05-16T05:34:00.929Z,101595.75
2023-05-16T05:36:27.949Z,101595.38
2023-05-16T05:38:56.572Z,101603.59
2023-05-16T05:41:23.494Z,101594.63
2023-05-16T05:43:50.362Z,101607.53
2023-05-16T05:46:17.438Z,101606.75
2023-05-16T05:48:44.829Z,101602.34
2023-05-16T05:51:13.948Z,101603.84
2023-05-16T05:53:42.708Z,101605.66
2023-05-16T05:56:11.171Z,101607.22
2023-05-16T05:58:41.869Z,101605.91
2023-05-16T06:01:08.835Z,101610.44
2023-05-16T06:03:35.752Z,101623.16
2023-05-16T06:06:03.922Z,101619.66
2023-05-16T06:08:30.908Z,101612.91
2023-05-16T06:10:57.777Z,101628.94
2023-05-16T06:13:25.997Z,101632.00
2023-05-16T06:15:53.832Z,101629.41
2023-05-16T06:18:22.827Z,101633.13
2023-05-16T06:20:50.437Z,101627.47
2023-05-16T06:23:19.257Z,101625.47
2023-05-16T06:25:47.414Z,101632.09
2023-05-16T06:28:14.304Z,101635.25
2023-05-16T06:30:42.548Z,101633.44
2023-05-16T06:33:09.503Z,101637.13
2023-05-16T06:35:36.373Z,101629.81
2023-05-16T06:38:03.243Z,101641.97
2023-05-16T06:40:30.099Z,101640.78
2023-05-16T06:42:58.392Z,101651.66
2023-05-16T06:45:26.038Z,101642.25
2023-05-16T06:47:57.268Z,101634.69
2023-05-16T06:50:24.634Z,101651.72
2023-05-16T06:52:51.576Z,101658.69
2023-05-16T06:55:18.773Z,101655.25
2023-05-16T06:57:45.865Z,101660.03
2023-05-16T07:00:14.324Z,101654.09
2023-05-16T07:02:41.378Z,101657.16
2023-05-16T07:05:12.789Z,101658.00
2023-05-16T07:07:40.168Z,101662.91
2023-05-16T07:10:08.227Z,101665.16
2023-05-16T07:12:37.391Z,101659.81
2023-05-16T07:15:05.997Z,101665.38
2023-05-16T07:17:33.076Z,101668.66
2023-05-16T07:20:00.425Z,101662.94
2023-05-16T07:22:30.598Z,101672.00
2023-05-16T07:25:00.850Z,101671.19
2023-05-16T07:27:34.064Z,101672.03
2023-05-16T07:30:06.382Z,101664.59
2023-05-16T07:32:38.180Z,101670.34
2023-05-16T07:35:09.663Z,101668.06
2023-05-16T07:37:38.551Z,101678.16
2023-05-16T07:40:10.699Z,101681.44
2023-05-16T07:42:38.330Z,101681.03
2023-05-16T07:45:07.659Z,101681.06
2023-05-16T07:47:38.433Z,101683.31
2023-05-16T07:50:06.999Z,101689.66
2023-05-16T07:52:34.798Z,101703.44
2023-05-16T07:55:07.497Z,101708.94
2023-05-16T07:57:37.333Z,101701.13
2023-05-16T08:00:41.285Z,101709.25
2023-05-16T08:03:28.692Z,101703.09
2023-05-16T08:05:58.245Z,101704.13
2023-05-16T08:08:26.488Z,101700.69
2023-05-16T08:10:56.200Z,101710.19
2023-05-16T08:13:23.789Z,101698.59
2023-05-16T08:15:51.543Z,101701.00
2023-05-16T08:18:22.098Z,101701.41
2023-05-16T08:20:55.120Z,101692.34
2023-05-16T08:23:23.008Z,101688.13
2023-05-16T08:26:35.070Z,101684.50
2023-05-16T08:29:59.976Z,101687.91
2023-05-16T08:32:28.728Z,101694.19
2023-05-16T08:38:28.431Z,101704.22
2023-05-16T08:41:37.254Z,101702.84
2023-05-16T08:44:26.754Z,101696.69
2023-05-16T08:47:21.314Z,101693.00
2023-05-16T08:49:52.474Z,101695.22
2023-05-16T08:55:29.660Z,101696.50
2023-05-16T08:59:22.630Z,101692.16
2023-05-16T09:02:12.590Z,101690.03
2023-05-16T09:04:41.340Z,101690.38
2023-05-16T09:07:08.408Z,101677.44
2023-05-16T09:09:35.633Z,101683.63
2023-05-16T09:12:02.657Z,101684.94
2023-05-16T09:14:30.936Z,101676.25
2023-05-16T09:17:06.434Z,101677.31
2023-05-16T09:19:39.124Z,101675.50
2023-05-16T09:22:08.892Z,101684.00
2023-05-16T09:24:39.731Z,101690.69
2023-05-16T09:27:11.189Z,101682.72
2023-05-16T09:29:40.689Z,101687.50
2023-05-16T09:32:12.991Z,101690.69
2023-05-16T09:34:45.178Z,101691.16
2023-05-16T09:37:12.580Z,101683.31
2023-05-16T09:39:45.665Z,101682.41
2023-05-16T09:42:13.722Z,101682.56
2023-05-16T09:44:45.743Z,101683.44
2023-05-16T09:47:15.117Z,101670.81
2023-05-16T09:49:42.170Z,101677.38
2023-05-16T09:52:10.256Z,101666.84
2023-05-16T09:54:37.544Z,101670.16
2023-05-16T09:57:05.100Z,101672.56
2023-05-16T09:59:36.416Z,101691.13
2023-05-16T10:02:06.519Z,101689.31
2023-05-16T10:04:34.901Z,101676.06
2023-05-16T10:07:04.519Z,101695.44
2023-05-16T10:09:33.502Z,101686.72
2023-05-16T10:12:04.492Z,101702.44
2023-05-16T10:14:36.653Z,101706.50
2023-05-16T10:17:08.618Z,101716.34
2023-05-16T10:19:39.424Z,101721.19
2023-05-16T10:22:08.254Z,101727.72
2023-05-16T10:24:44.187Z,101728.16
2023-05-16T10:27:12.235Z,101742.41
2023-05-16T10:29:53.394Z,101745.22
2023-05-16T10:32:24.801Z,101751.63
2023-05-16T10:34:53.004Z,101754.22
2023-05-16T10:37:19.958Z,101746.72
2023-05-16T10:39:48.025Z,101743.16
2023-05-16T10:42:18.271Z,101744.38
2023-05-16T10:44:54.599Z,101734.25
2023-05-16T10:47:26.818Z,101740.28
2023-05-16T10:49:53.824Z,101735.00
2023-05-16T10:52:32.441Z,101736.34
2023-05-16T10:55:04.813Z,101740.22
2023-05-16T10:57:34.370Z,101735.63
2023-05-16T11:00:02.100Z,101738.50
2023-05-16T11:02:39.851Z,101748.94
2023-05-16T11:05:12.909Z,101752.72
2023-05-16T11:07:40.275Z,101762.31
2023-05-16T11:10:10.937Z,101764.59
2023-05-16T11:12:46.344Z,101752.31
2023-05-16T11:15:26.475Z,101751.53
2023-05-16T11:18:07.204Z,101756.78
2023-05-16T11:20:37.767Z,101757.94
2023-05-16T11:23:25.579Z,101745.28
2023-05-16T11:25:56.289Z,101749.66
2023-05-16T11:28:25.996Z,101745.50
2023-05-16T11:30:59.202Z,101748.13
2023-05-16T11:33:29.774Z,101739.91
2023-05-16T11:36:15.287Z,101743.75
2023-05-16T11:38:54.079Z,101736.09
2023-05-16T11:41:23.089Z,101738.78
2023-05-16T11:43:50.120Z,101737.50
2023-05-16T11:46:17.703Z,101729.88
2023-05-16T11:48:59.192Z,101738.06
2023-05-16T11:51:26.950Z,101747.41
2023-05-16T11:54:00.227Z,101746.72
2023-05-16T11:56:27.904Z,101749.16
2023-05-16T11:58:56.080Z,101785.66
2023-05-16T12:01:23.250Z,101771.44
2023-05-16T12:03:57.957Z,101784.03
2023-05-16T12:06:26.302Z,101782.41
2023-05-16T12:08:53.644Z,101756.81
2023-05-16T12:11:23.296Z,101762.81
2023-05-16T12:13:51.286Z,101761.25
2023-05-16T12:16:18.850Z,101760.44
2023-05-16T12:18:46.799Z,101765.47
2023-05-16T12:21:16.506Z,101763.91
2023-05-16T12:23:43.697Z,101764.03
2023-05-16T12:26:10.644Z,101765.94
2023-05-16T12:28:39.340Z,101760.13
2023-05-16T12:31:31.111Z,101754.16
2023-05-16T12:33:59.632Z,101758.28
2023-05-16T12:36:33.826Z,101755.31
2023-05-16T12:39:02.145Z,101766.19
2023-05-16T12:41:41.466Z,101819.53
2023-05-16T12:44:13.472Z,101805.81
2023-05-16T12:46:45.846Z,101785.28
2023-05-16T12:49:13.653Z,101771.56
2023-05-16T12:51:50.060Z,101771.38
2023-05-16T12:54:17.687Z,101760.97
2023-05-16T12:56:45.046Z,101761.97
2023-05-16T12:59:14.975Z,101765.94
2023-05-16T13:01:42.203Z,101767.06
2023-05-16T13:04:09.778Z,101762.50
2023-05-16T13:06:55.715Z,101756.53
2023-05-16T13:09:30.046Z,101753.94
2023-05-16T13:11:58.266Z,101754.06
2023-05-16T13:14:25.354Z,101762.94
2023-05-16T13:16:52.291Z,101762.00
2023-05-16T13:19:19.598Z,101752.19
2023-05-16T13:21:46.622Z,101754.16
2023-05-16T13:24:13.547Z,101755.56
2023-05-16T13:26:41.755Z,101768.97
2023-05-16T13:29:11.217Z,101765.56
2023-05-16T13:31:38.157Z,101779.75
2023-05-16T13:34:05.302Z,101767.75
2023-05-16T13:36:41.691Z,101770.28
2023-05-16T13:39:19.379Z,101763.41
2023-05-16T13:41:49.202Z,101759.53
2023-05-16T13:44:16.617Z,101758.81
2023-05-16T13:46:43.795Z,101771.25
2023-05-16T13:49:10.990Z,101758.72
2023-05-16T13:51:37.977Z,101756.44
2023-05-16T13:54:05.060Z,101769.91
2023-05-16T13:56:31.987Z,101759.91
2023-05-16T13:59:05.946Z,101748.13
2023-05-16T14:01:34.318Z,101758.28
2023-05-16T14:04:01.355Z,101753.56
2023-05-16T14:06:28.527Z,101746.78
2023-05-16T14:08:55.515Z,101756.41
2023-05-16T14:11:28.902Z,101753.28
2023-05-16T14:13:56.918Z,101762.72
2023-05-16T14:16:25.671Z,101753.47
2023-05-16T14:18:52.795Z,101764.59
2023-05-16T14:21:19.801Z,101764.38
2023-05-16T14:23:46.882Z,101768.16
2023-05-16T14:26:13.876Z,101765.25
2023-05-16T14:28:41.136Z,101774.03
2023-05-16T14:31:08.377Z,101769.91
2023-05-16T14:33:36.772Z,101767.59
2023-05-16T14:36:05.292Z,101770.59
2023-05-16T14:38:34.592Z,101776.44
2023-05-16T14:41:01.608Z,101774.41
2023-05-16T14:43:28.636Z,101781.38
2023-05-16T14:45:58.655Z,101784.22
2023-05-16T14:48:26.210Z,101783.28
2023-05-16T14:50:55.593Z,101780.72
2023-05-16T14:53:22.849Z,101778.38
2023-05-16T14:55:50.070Z,101778.84
2023-05-16T14:58:17.038Z,101775.44
2023-05-16T15:00:44.140Z,101773.03
2023-05-16T15:03:12.131Z,101767.53
2023-05-16T15:05:40.072Z,101773.81
2023-05-16T15:08:08.549Z,101761.88
2023-05-16T15:10:35.677Z,101761.19
2023-05-16T15:13:03.129Z,101763.84
2023-05-16T15:15:30.582Z,101772.81
2023-05-16T15:17:57.635Z,101775.13
2023-05-16T15:20:26.391Z,101781.91
2023-05-16T15:22:53.526Z,101791.09
2023-05-16T15:25:21.956Z,101785.72
2023-05-16T15:27:48.890Z,101799.00
2023-05-16T15:30:16.052Z,101788.75
2023-05-16T15:32:43.233Z,101803.19
2023-05-16T15:35:10.438Z,101806.19
2023-05-16T15:37:38.115Z,101801.41
2023-05-16T15:40:08.310Z,101804.94
2023-05-16T15:42:36.689Z,101800.31
2023-05-16T15:45:04.389Z,101807.53
2023-05-16T15:47:31.405Z,101808.38
2023-05-16T15:49:58.338Z,101809.53
2023-05-16T15:52:26.102Z,101808.31
2023-05-16T15:54:53.110Z,101810.47
2023-05-16T15:57:20.560Z,101817.19
2023-05-16T15:59:48.824Z,101821.41
2023-05-16T16:02:15.991Z,101823.47
2023-05-16T16:04:43.324Z,101833.91
2023-05-16T16:07:11.368Z,101834.75
2023-05-16T16:09:38.362Z,101829.84
2023-05-16T16:12:06.411Z,101840.19
2023-05-16T16:14:33.321Z,101837.72
2023-05-16T16:17:01.654Z,101831.44
2023-05-16T16:19:33.873Z,101827.50
2023-05-16T16:22:00.863Z,101835.25
2023-05-16T16:24:27.860Z,101833.59
2023-05-16T16:26:54.826Z,101836.59
2023-05-16T16:29:21.739Z,101842.81
2023-05-16T16:31:48.940Z,101832.50
2023-05-16T16:34:17.370Z,101845.81
2023-05-16T16:36:44.339Z,101845.19
2023-05-16T16:39:11.448Z,101840.56
2023-05-16T16:41:38.538Z,101846.41
2023-05-16T16:44:05.656Z,101856.56
2023-05-16T16:46:32.696Z,101850.03
2023-05-16T16:48:59.667Z,101856.66
2023-05-16T16:51:30.022Z,101853.81
2023-05-16T16:53:58.601Z,101858.28
2023-05-16T16:56:29.918Z,101854.75
2023-05-16T16:58:56.854Z,101850.75
2023-05-16T17:01:24.257Z,101848.44
2023-05-16T17:03:51.474Z,101854.84
2023-05-16T17:06:19.346Z,101856.91
2023-05-16T17:08:47.770Z,101852.31
2023-05-16T17:11:22.355Z,101853.78
2023-05-16T17:13:49.636Z,101856.41
2023-05-16T17:16:16.659Z,101865.31
2023-05-16T17:18:43.714Z,101860.44
2023-05-16T17:21:12.857Z,101860.06
2023-05-16T17:23:43.165Z,101877.38
2023-05-16T17:26:13.674Z,101872.19
2023-05-16T17:28:40.626Z,101874.47
2023-05-16T17:31:07.578Z,101879.44
2023-05-16T17:33:34.510Z,101886.00
2023-05-16T17:36:02.001Z,101881.91
2023-05-16T17:38:28.966Z,101881.50
2023-05-16T17:40:55.912Z,101884.00
2023-05-16T17:43:24.363Z,101890.16
2023-05-16T17:45:51.278Z,101895.09
2023-05-16T17:48:18.406Z,101901.22
2023-05-16T17:50:45.427Z,101897.94
2023-05-16T17:53:12.387Z,101906.09
2023-05-16T17:55:39.316Z,101908.56
2023-05-16T17:58:06.786Z,101904.03
2023-05-16T18:00:35.230Z,101910.16
2023-05-16T18:03:02.835Z,101908.53
2023-05-16T18:05:30.073Z,101910.59
2023-05-16T18:07:57.495Z,101910.59
2023-05-16T18:10:25.581Z,101906.47
2023-05-16T18:12:52.842Z,101914.06
2023-05-16T18:15:20.011Z,101910.75
2023-05-16T18:17:48.732Z,101918.16
2023-05-16T18:20:15.916Z,101916.88
2023-05-16T18:22:44.108Z,101914.63
2023-05-16T18:25:11.481Z,101924.88
2023-05-16T18:27:38.763Z,101915.63
2023-05-16T18:30:07.829Z,101921.34
2023-05-16T18:32:36.486Z,101919.09
2023-05-16T18:35:05.867Z,101921.97
2023-05-16T18:37:32.996Z,101923.63
2023-05-16T18:39:59.963Z,101925.25
2023-05-16T18:42:27.231Z,101927.28
2023-05-16T18:44:54.180Z,101925.22
2023-05-16T18:47:21.346Z,101918.66
2023-05-16T18:49:48.408Z,101924.59
2023-05-16T18:52:16.815Z,101935.84
2023-05-16T18:54:43.788Z,101921.44
2023-05-16T18:57:11.316Z,101924.31
2023-05-16T18:59:38.347Z,101932.09
2023-05-16T19:02:05.466Z,101939.59
2023-05-16T19:04:32.508Z,101938.38
2023-05-16T19:07:00.580Z,101949.63
2023-05-16T19:09:30.074Z,101956.78
2023-05-16T19:11:57.178Z,101951.44
2023-05-16T19:14:24.209Z,101957.41
2023-05-16T19:16:51.272Z,101953.09
2023-05-16T19:19:18.374Z,101961.09
2023-05-16T19:21:46.679Z,101956.59
2023-05-16T19:24:13.677Z,101960.47
2023-05-16T19:26:42.116Z,101966.00
2023-05-16T19:29:10.662Z,101966.59
2023-05-16T19:31:37.729Z,101965.97
2023-05-16T19:34:05.323Z,101969.63
2023-05-16T19:36:33.692Z,101975.75
2023-05-16T19:39:00.753Z,101966.88
2023-05-16T19:41:27.794Z,101964.59
2023-05-16T19:43:56.084Z,101959.63
2023-05-16T19:46:23.693Z,101963.72
2023-05-16T19:48:51.042Z,101968.22
2023-05-16T19:51:29.545Z,101969.06
2023-05-16T19:54:04.713Z,101969.63
2023-05-16T19:56:32.757Z,101971.84
2023-05-16T19:59:01.051Z,101971.41
2023-05-16T20:01:28.105Z,101968.91
2023-05-16T20:03:55.129Z,101971.16
2023-05-16T20:06:22.120Z,101971.75
2023-05-16T20:08:49.305Z,101976.81
2023-05-16T20:11:16.334Z,101974.91
2023-05-16T20:13:43.327Z,101973.63
2023-05-16T20:16:12.392Z,101979.34
2023-05-16T20:18:39.501Z,101979.72
2023-05-16T20:21:06.561Z,101975.59
2023-05-16T20:23:34.971Z,101980.94
2023-05-16T20:26:02.719Z,101976.81
2023-05-16T20:28:30.578Z,101974.16
2023-05-16T20:30:57.585Z,101975.16
2023-05-16T20:33:26.083Z,101976.81
2023-05-16T20:35:53.170Z,101975.59
2023-05-16T20:38:20.210Z,101982.97
2023-05-16T20:40:47.448Z,101982.31
2023-05-16T20:43:14.461Z,101980.84
2023-05-16T20:45:41.422Z,101982.84
2023-05-16T20:48:09.042Z,101985.50
2023-05-16T20:50:38.792Z,101992.28
2023-05-16T20:53:05.965Z,101995.16
2023-05-16T20:55:33.097Z,101990.66
2023-05-16T20:58:00.740Z,101989.63
2023-05-16T21:00:27.783Z,101981.84
2023-05-16T21:02:54.786Z,101982.84
2023-05-16T21:05:25.448Z,101992.69
2023-05-16T21:07:54.580Z,101992.84
2023-05-16T21:10:21.482Z,101991.84
2023-05-16T21:12:50.012Z,101984.88
2023-05-16T21:15:17.025Z,101987.75
2023-05-16T21:17:43.985Z,101989.78
2023-05-16T21:20:11.872Z,101985.66
2023-05-16T21:22:38.978Z,101989.88
2023-05-16T21:25:08.476Z,101988.41
2023-05-16T21:27:35.781Z,101997.44
2023-05-16T21:30:03.106Z,101989.59
2023-05-16T21:32:32.488Z,101991.44
2023-05-16T21:35:04.174Z,101987.78
2023-05-16T21:37:31.193Z,101988.78
2023-05-16T21:39:58.354Z,101989.81
2023-05-16T21:42:26.724Z,101994.50
2023-05-16T21:44:53.714Z,101992.84
2023-05-16T21:47:20.912Z,101994.84
2023-05-16T21:49:47.961Z,101985.88
2023-05-16T21:52:14.890Z,101996.53
2023-05-16T21:54:41.893Z,101991.19
2023-05-16T21:57:08.978Z,101992.19
2023-05-16T21:59:37.333Z,101986.25
2023-05-16T22:02:05.010Z,101985.59
2023-05-16T22:04:32.351Z,101989.63
2023-05-16T22:06:59.381Z,101990.66
2023-05-16T22:09:26.347Z,101988.00
2023-05-16T22:11:53.237Z,101990.66
2023-05-16T22:14:20.243Z,101989.00
2023-05-16T22:16:48.557Z,101991.03
2023-05-16T22:19:15.517Z,101995.53
2023-05-16T22:21:42.458Z,101994.69
2023-05-16T22:24:09.391Z,101990.19
2023-05-16T22:26:36.293Z,101999.63
2023-05-16T22:29:03.249Z,101999.63
2023-05-16T22:31:30.192Z,101994.31
2023-05-16T22:33:58.543Z,101987.38
2023-05-16T22:36:25.557Z,101994.69
2023-05-16T22:38:52.502Z,101989.38
2023-05-16T22:41:19.454Z,101993.06
2023-05-16T22:43:46.404Z,101991.38
2023-05-16T22:46:13.588Z,101981.94
2023-05-16T22:48:40.648Z,101989.13
2023-05-16T22:51:08.890Z,101988.47
2023-05-16T22:53:35.999Z,101988.47
2023-05-16T22:56:03.598Z,101985.78
2023-05-16T22:58:30.601Z,101981.50
2023-05-16T23:00:58.027Z,101986.00
2023-05-16T23:03:25.186Z,101987.03
2023-05-16T23:05:52.131Z,101992.50
2023-05-16T23:08:20.380Z,101990.88
2023-05-16T23:10:47.644Z,101990.88
2023-05-16T23:13:14.544Z,101993.69
2023-05-16T23:15:41.456Z,101994.91
2023-05-16T23:18:08.541Z,102004.25
2023-05-16T23:20:35.558Z,101993.16
2023-05-16T23:23:02.496Z,101999.31
2023-05-16T23:25:30.744Z,101996.00
2023-05-16T23:27:57.786Z,101988.59
2023-05-16T23:30:25.119Z,101998.59
2023-05-16T23:32:52.174Z,101999.13
2023-05-16T23:35:19.331Z,101997.84
2023-05-16T23:37:46.368Z,101998.22
2023-05-16T23:40:13.434Z,101997.59
2023-05-16T23:42:41.768Z,101996.28
2023-05-16T23:45:10.242Z,102001.31
2023-05-16T23:47:37.249Z,102001.00
2023-05-16T23:50:05.852Z,101997.06
2023-05-16T23:52:32.816Z,101999.44
2023-05-16T23:54:59.785Z,101996.34
2023-05-16T23:57:26.935Z,102008.16
2023-05-16T23:59:55.552Z,102012.81
